Time;durP1;ratioP1;P1;durP2;ratioP2;P2;SDS_P1;SDS_P2;PMS_P1;PMS_P2;Temp;Humidity;BMP_temperature;BMP_pressure;BME280_temperature;BME280_humidity;BME280_pressure;Samples;Min_cycle;Max_cycle;Signal;HPM_P1;HPM_P2
2023/06/28 00:01:48;;;;;;;1.70;0.90;;;;;;;15.25;59.51;100509.35;105947;1286;73670;-87
2023/06/28 00:05:35;;;;;;;1.20;0.80;;;;;;;15.20;59.61;100513.35;106031;1283;68447;-88
2023/06/28 00:09:17;;;;;;;1.70;0.90;;;;;;;15.16;59.62;100514.73;105979;1283;71249;-86
2023/06/28 00:12:52;;;;;;;1.60;1.00;;;;;;;15.12;59.73;100510.52;106019;1286;60213;-87
2023/06/28 00:16:39;;;;;;;1.40;1.00;;;;;;;15.06;59.84;100500.70;106033;1283;60233;-88
2023/06/28 00:20:26;;;;;;;3.80;1.20;;;;;;;15.02;60.00;100491.86;106100;1283;72718;-87
2023/06/28 00:24:11;;;;;;;3.20;1.00;;;;;;;14.97;60.05;100490.11;105977;1286;67134;-87
2023/06/28 00:27:58;;;;;;;1.40;0.90;;;;;;;14.94;60.18;100492.13;105913;1283;73125;-87
2023/06/28 00:31:44;;;;;;;3.60;1.10;;;;;;;14.92;60.34;100484.21;106122;1283;58315;-86
2023/06/28 00:35:30;;;;;;;2.20;0.90;;;;;;;14.89;60.42;100485.70;106008;1286;59337;-87
2023/06/28 00:38:57;;;;;;;3.90;1.40;;;;;;;14.83;60.52;100483.83;106061;1283;72575;-87
2023/06/28 00:42:44;;;;;;;1.50;1.20;;;;;;;14.81;60.71;100485.15;106057;1286;67324;-88
2023/06/28 00:46:31;;;;;;;3.90;1.20;;;;;;;14.75;60.71;100483.42;106022;1283;71953;-87
2023/06/28 00:50:17;;;;;;;1.40;1.30;;;;;;;14.72;60.82;100477.63;106055;1283;60414;-88
2023/06/28 00:54:04;;;;;;;2.30;1.20;;;;;;;14.70;60.90;100479.08;106030;1283;59395;-87
2023/06/28 00:57:50;;;;;;;8.60;1.40;;;;;;;14.66;61.11;100474.40;105423;1288;72570;-88
2023/06/28 01:01:37;;;;;;;3.20;1.20;;;;;;;14.68;61.15;100472.94;105380;1289;70294;-88
2023/06/28 01:05:24;;;;;;;4.90;1.60;;;;;;;14.64;61.12;100475.66;105444;1288;71258;-87
2023/06/28 01:09:11;;;;;;;3.70;2.40;;;;;;;14.61;61.23;100470.73;101389;1289;5492033;-86
2023/06/28 01:12:57;;;;;;;1.60;1.30;;;;;;;14.61;61.28;100474.38;105398;1289;59087;-87
2023/06/28 01:16:44;;;;;;;4.20;1.10;;;;;;;14.56;61.32;100473.19;105487;1287;73595;-87
2023/06/28 01:20:31;;;;;;;5.00;1.70;;;;;;;14.52;61.41;100470.55;105500;1288;67231;-87
2023/06/28 01:24:21;;;;;;;3.80;1.10;;;;;;;14.49;61.49;100471.36;105430;1289;71356;-87
2023/06/28 01:28:04;;;;;;;2.90;1.20;;;;;;;14.48;61.67;100473.29;105602;1283;59285;-88
2023/06/28 01:31:50;;;;;;;2.10;1.30;;;;;;;14.45;61.66;100474.08;106043;1286;62310;-87
2023/06/28 01:35:37;;;;;;;1.80;1.10;;;;;;;14.43;61.73;100473.48;106033;1283;72604;-88
2023/06/28 01:39:24;;;;;;;2.70;1.30;;;;;;;14.42;61.71;100470.71;106032;1282;67198;-87
2023/06/28 01:43:10;;;;;;;4.50;1.30;;;;;;;14.39;61.83;100477.91;105995;1283;71834;-87
2023/06/28 01:46:56;;;;;;;5.10;1.30;;;;;;;14.36;61.88;100476.29;105972;1283;60782;-87
2023/06/28 01:50:24;;;;;;;2.80;1.00;;;;;;;14.35;61.93;100474.77;106047;1283;60799;-86
2023/06/28 01:53:51;;;;;;;4.00;1.30;;;;;;;14.34;61.93;100473.73;106247;1283;72126;-88
2023/06/28 01:57:38;;;;;;;4.80;1.30;;;;;;;14.30;62.05;100473.89;106043;1283;68925;-87
2023/06/28 02:01:24;;;;;;;1.20;1.00;;;;;;;14.27;62.07;100473.11;106060;1283;72565;-87
2023/06/28 02:05:11;;;;;;;2.10;1.00;;;;;;;14.25;62.09;100474.38;106071;1282;60418;-88
2023/06/28 02:08:57;;;;;;;5.00;1.20;;;;;;;14.24;62.17;100475.99;106083;1282;60348;-88
2023/06/28 02:12:43;;;;;;;4.60;1.30;;;;;;;14.19;62.13;100474.75;106102;1282;76692;-87
2023/06/28 02:16:31;;;;;;;4.50;1.20;;;;;;;14.13;62.23;100482.23;106112;1283;67315;-87
2023/06/28 02:20:17;;;;;;;3.50;1.50;;;;;;;14.08;62.35;100485.34;106089;1286;73901;-87
2023/06/28 02:24:04;;;;;;;2.50;1.20;;;;;;;14.04;62.40;100482.56;106044;1283;60218;-88
2023/06/28 02:27:50;;;;;;;1.90;1.10;;;;;;;13.99;62.50;100479.42;105041;1292;60330;-88
2023/06/28 02:31:37;;;;;;;3.20;1.10;;;;;;;13.99;62.53;100470.09;105159;1291;72491;-88
2023/06/28 02:35:23;;;;;;;1.90;0.90;;;;;;;13.99;62.63;100456.93;105123;1293;66697;-88
2023/06/28 02:39:10;;;;;;;4.40;1.10;;;;;;;13.99;62.67;100454.83;105150;1292;71210;-87
2023/06/28 02:42:57;;;;;;;7.60;1.30;;;;;;;13.95;62.60;100454.60;105139;1294;60302;-88
2023/06/28 02:46:43;;;;;;;3.10;1.30;;;;;;;13.93;62.78;100457.95;105088;1291;60867;-88
2023/06/28 02:50:30;;;;;;;2.80;1.20;;;;;;;13.92;62.80;100462.69;105146;1291;75232;-88
2023/06/28 02:54:17;;;;;;;2.70;1.10;;;;;;;13.92;62.91;100465.97;105129;1291;66324;-88
2023/06/28 02:58:03;;;;;;;2.90;1.30;;;;;;;13.95;63.01;100466.41;104625;1298;71450;-87
2023/06/28 03:01:50;;;;;;;8.50;1.40;;;;;;;13.96;63.03;100461.35;104623;1300;60509;-88
2023/06/28 03:05:37;;;;;;;3.20;1.30;;;;;;;13.97;63.06;100459.58;105091;1291;60352;-88
2023/06/28 03:09:24;;;;;;;5.70;1.40;;;;;;;13.97;63.18;100460.08;105122;1293;72769;-88
2023/06/28 03:13:11;;;;;;;4.30;1.30;;;;;;;14.01;63.25;100457.89;105212;1291;67212;-88
2023/06/28 03:16:57;;;;;;;4.60;2.00;;;;;;;14.09;63.28;100461.92;105185;1291;72254;-88
2023/06/28 03:20:44;;;;;;;3.00;1.10;;;;;;;14.14;63.28;100460.01;97918;1294;10002651;-88
2023/06/28 03:24:31;;;;;;;1.90;1.10;;;;;;;14.16;63.41;100460.32;105150;1291;67482;-88
2023/06/28 03:28:18;;;;;;;7.20;1.60;;;;;;;14.20;63.42;100464.31;105131;1294;71333;-88
2023/06/28 03:32:04;;;;;;;8.10;2.20;;;;;;;14.25;63.47;100461.72;105171;1296;60463;-87
2023/06/28 03:35:51;;;;;;;2.30;1.20;;;;;;;14.29;63.54;100453.98;104989;1293;60294;-88
2023/06/28 03:39:38;;;;;;;5.20;1.30;;;;;;;14.31;63.61;100453.38;104953;1293;75405;-88
2023/06/28 03:43:25;;;;;;;3.70;1.30;;;;;;;14.39;63.68;100451.90;104944;1292;68109;-87
2023/06/28 03:47:11;;;;;;;3.40;1.50;;;;;;;14.49;63.74;100450.36;104934;1294;73066;-88
2023/06/28 03:50:58;;;;;;;5.70;1.30;;;;;;;14.57;63.70;100450.58;104952;1294;61093;-88
2023/06/28 03:54:45;;;;;;;4.40;1.30;;;;;;;14.66;63.73;100452.34;104932;1293;59280;-88
2023/06/28 03:58:31;;;;;;;2.50;1.40;;;;;;;14.75;63.75;100448.77;104983;1294;72370;-87
2023/06/28 04:02:19;;;;;;;5.60;2.00;;;;;;;14.85;63.75;100451.99;104939;1293;66416;-88
2023/06/28 04:06:05;;;;;;;4.40;1.40;;;;;;;14.95;63.76;100452.35;104938;1294;72420;-89
2023/06/28 04:09:52;;;;;;;3.50;1.10;;;;;;;15.05;63.79;100454.23;104910;1292;60548;-89
2023/06/28 04:13:38;;;;;;;5.00;1.30;;;;;;;15.27;63.78;100447.80;105899;1282;60351;-89
2023/06/28 04:17:26;;;;;;;3.70;1.30;;;;;;;15.44;63.57;100451.34;106012;1283;72253;-88
2023/06/28 04:21:13;;;;;;;7.20;1.50;;;;;;;15.48;63.72;100448.59;106007;1282;67255;-88
2023/06/28 04:25:00;;;;;;;5.50;1.50;;;;;;;15.58;63.79;100449.62;106013;1283;72341;-89
2023/06/28 04:28:46;;;;;;;3.60;1.20;;;;;;;15.78;63.79;100450.17;106027;1283;60411;-89
2023/06/28 04:32:39;;;;;;;5.60;1.50;;;;;;;16.06;63.80;100450.27;106011;1283;62811;-89
2023/06/28 04:36:28;;;;;;;1.80;1.30;;;;;;;16.23;63.59;100446.39;105950;1282;72623;-88
2023/06/28 04:40:16;;;;;;;2.20;1.00;;;;;;;16.25;63.60;100449.45;105148;1291;67313;-88
2023/06/28 04:44:03;;;;;;;2.40;1.00;;;;;;;16.24;63.46;100449.84;105081;1291;71580;-88
2023/06/28 04:47:49;;;;;;;3.20;1.10;;;;;;;16.18;63.47;100451.80;104622;1297;60681;-89
2023/06/28 04:51:36;;;;;;;4.20;1.20;;;;;;;16.20;63.49;100451.90;104690;1299;60358;-88
2023/06/28 04:55:22;;;;;;;7.00;1.20;;;;;;;16.17;63.53;100450.79;104684;1296;72642;-89
2023/06/28 05:23:13;;;;;;;3.20;1.50;;;;;;;16.82;63.49;100455.83;105574;1286;73946;-90
2023/06/28 05:34:40;;;;;;;3.60;1.20;;;;;;;16.65;63.56;100456.95;105722;1282;60339;-90
2023/06/28 05:44:20;;;;;;;6.60;1.40;;;;;;;16.46;63.91;100448.02;105843;1288;71805;-90
2023/06/28 05:50:17;;;;;;;4.00;1.60;;;;;;;16.56;63.88;100444.48;105853;1286;59912;-89
2023/06/28 05:54:04;;;;;;;3.50;1.10;;;;;;;16.55;64.02;100443.96;105468;1288;75777;-89
2023/06/28 05:57:51;;;;;;;4.30;1.70;;;;;;;16.54;63.98;100443.48;104898;1296;68694;-89
2023/06/28 06:01:38;;;;;;;5.30;1.80;;;;;;;16.53;64.07;100446.51;104868;1298;72493;-89
2023/06/28 06:08:09;;;;;;;4.00;1.50;;;;;;;16.47;64.09;100448.48;105583;1287;60440;-89
2023/06/28 06:11:56;;;;;;;2.90;1.30;;;;;;;16.40;64.26;100450.55;105458;1292;73250;-89
2023/06/28 06:15:43;;;;;;;3.20;1.70;;;;;;;16.34;64.35;100449.60;104844;1295;68313;-89
2023/06/28 06:19:30;;;;;;;4.70;1.60;;;;;;;16.23;64.32;100448.84;104819;1296;71445;-89
2023/06/28 06:23:16;;;;;;;7.50;1.80;;;;;;;16.16;64.56;100445.29;104365;1304;60328;-89
2023/06/28 06:27:03;;;;;;;4.00;1.50;;;;;;;16.10;64.54;100444.16;104471;1301;60676;-89
2023/06/28 06:30:50;;;;;;;3.20;1.50;;;;;;;16.03;64.68;100439.77;104382;1303;73951;-89
2023/06/28 06:34:36;;;;;;;6.70;1.80;;;;;;;15.99;64.79;100436.29;104064;1306;68253;-89
2023/06/28 06:38:23;;;;;;;4.70;2.10;;;;;;;15.95;64.84;100441.70;104102;1310;71570;-89
2023/06/28 06:42:10;;;;;;;7.70;1.80;;;;;;;15.89;64.91;100437.21;104078;1311;60383;-89
2023/06/28 06:45:57;;;;;;;6.10;2.30;;;;;;;15.80;65.02;100439.15;104069;1309;60501;-89
2023/06/28 06:52:27;;;;;;;4.80;2.00;;;;;;;15.69;65.19;100437.34;105642;1287;67161;-89
2023/06/28 06:56:21;;;;;;;5.50;2.70;;;;;;;15.65;65.31;100439.05;104835;1296;72259;-89
2023/06/28 07:03:01;;;;;;;7.90;2.40;;;;;;;15.57;65.43;100444.10;105676;1287;59416;-89
2023/06/28 07:06:48;;;;;;;4.90;1.90;;;;;;;15.52;65.49;100444.96;104832;1294;73518;-89
2023/06/28 07:10:35;;;;;;;5.30;2.00;;;;;;;15.49;65.58;100452.03;104872;1296;67980;-89
2023/06/28 07:14:22;;;;;;;3.90;2.20;;;;;;;15.44;65.81;100451.70;104805;1294;71729;-89
2023/06/28 07:18:09;;;;;;;5.20;1.80;;;;;;;15.43;65.93;100451.20;104845;1294;60371;-89
2023/06/28 07:21:56;;;;;;;6.80;1.80;;;;;;;15.42;65.87;100453.85;104463;1300;59694;-89
2023/06/28 07:25:46;;;;;;;4.50;1.70;;;;;;;15.39;65.98;100452.94;104470;1300;72420;-89
2023/06/28 07:29:32;;;;;;;3.10;1.40;;;;;;;15.38;66.19;100460.94;104435;1299;68291;-89
2023/06/28 07:33:19;;;;;;;5.70;1.50;;;;;;;15.37;66.13;100454.58;104459;1302;73072;-89
2023/06/28 07:37:06;;;;;;;7.20;1.40;;;;;;;15.40;66.36;100456.71;104560;1300;58612;-89
2023/06/28 07:40:53;;;;;;;2.50;1.60;;;;;;;15.43;66.30;100461.29;104549;1298;59157;-90
2023/06/28 07:44:45;;;;;;;4.10;1.70;;;;;;;15.47;66.43;100460.95;105020;1294;73542;-90
2023/06/28 07:57:09;;;;;;;3.00;1.40;;;;;;;15.61;66.58;100468.43;105663;1284;58787;-90
2023/06/28 08:06:03;;;;;;;1.30;1.20;;;;;;;15.63;66.83;100466.05;105616;1287;71770;-90
2023/06/28 08:09:20;;;;;;;5.80;1.30;;;;;;;15.61;66.85;100468.08;105641;1286;60582;-90
2023/06/28 08:13:07;;;;;;;2.40;1.30;;;;;;;15.59;66.96;100475.61;105748;1286;60245;-90
2023/06/28 08:16:53;;;;;;;2.40;1.50;;;;;;;15.61;67.15;100476.42;105581;1289;73755;-90
2023/06/28 08:30:26;;;;;;;4.10;2.00;;;;;;;15.74;67.35;100471.01;105770;1285;72909;-90
2023/06/28 08:34:12;;;;;;;8.90;2.50;;;;;;;15.75;67.37;100476.38;105044;1293;69367;-90
2023/06/28 08:43:24;;;;;;;7.20;2.70;;;;;;;15.80;67.56;100475.83;105704;1286;60350;-90
2023/06/28 08:47:12;;;;;;;6.70;2.70;;;;;;;15.77;67.50;100475.79;104818;1296;75224;-89
2023/06/28 08:50:59;;;;;;;5.50;2.40;;;;;;;15.79;67.74;100470.13;104425;1300;68493;-90
2023/06/28 08:54:49;;;;;;;10.60;4.00;;;;;;;15.85;67.80;100475.27;104000;1305;71423;-90
2023/06/28 08:58:36;;;;;;;6.20;2.60;;;;;;;15.89;67.86;100470.23;103946;1305;59250;-90
2023/06/28 14:44:25;;;;;;;6.90;5.50;;;;;;;18.60;72.66;100576.30;88213;1291;71210;-90
2023/06/28 14:48:12;;;;;;;7.90;4.90;;;;;;;18.68;72.68;100575.17;106206;1291;59531;-90
2023/06/28 14:51:59;;;;;;;7.90;4.90;;;;;;;18.73;72.54;100572.64;105763;1295;60056;-89
2023/06/28 14:55:46;;;;;;;7.10;5.30;;;;;;;18.73;72.64;100574.55;105813;1294;73731;-89
2023/06/28 15:02:31;;;;;;;9.80;4.70;;;;;;;18.84;72.80;100575.91;106192;1293;72542;-90
2023/06/28 15:06:18;;;;;;;8.50;4.10;;;;;;;18.91;72.75;100574.73;106264;1290;59156;-89
2023/06/28 15:12:40;;;;;;;9.60;4.80;;;;;;;18.96;72.64;100578.46;106285;1289;73769;-90
2023/06/28 15:37:28;;;;;;;8.40;4.50;;;;;;;18.90;72.90;100592.55;106377;1289;59556;-90
2023/06/28 15:46:55;;;;;;;9.70;4.70;;;;;;;18.87;72.80;100603.20;106236;1290;72422;-90
2023/06/28 15:50:42;;;;;;;7.50;4.40;;;;;;;18.88;73.20;100600.39;106221;1290;59067;-90
2023/06/28 15:57:11;;;;;;;8.40;5.20;;;;;;;18.93;72.96;100604.64;106320;1290;73292;-90
2023/06/28 16:00:57;;;;;;;10.10;5.40;;;;;;;18.95;72.93;100597.89;106381;1290;67332;-90
2023/06/28 16:04:44;;;;;;;8.00;4.70;;;;;;;19.02;73.08;100592.84;106377;1290;72948;-90
2023/06/28 16:08:31;;;;;;;9.50;5.30;;;;;;;19.08;72.98;100591.29;106368;1289;59868;-90
2023/06/28 16:12:18;;;;;;;9.30;4.90;;;;;;;19.14;72.91;100592.54;105699;1296;59083;-91
2023/06/28 16:21:40;;;;;;;9.70;4.60;;;;;;;19.23;73.05;100596.46;106237;1289;72332;-90
2023/06/28 17:09:00;;;;;;;9.40;4.50;;;;;;;19.45;72.58;100630.92;106276;1289;73552;-88
2023/06/28 17:12:25;;;;;;;5.80;4.20;;;;;;;19.47;72.66;100632.76;106209;1291;68617;-86
2023/06/28 17:16:06;;;;;;;5.60;3.90;;;;;;;19.48;72.67;100635.14;106207;1289;72165;-87
2023/06/28 17:19:53;;;;;;;8.80;4.60;;;;;;;19.47;72.60;100637.63;106091;1291;58103;-86
2023/06/28 17:23:40;;;;;;;8.30;4.00;;;;;;;19.45;72.52;100641.23;105915;1293;60173;-86
2023/06/28 17:27:26;;;;;;;5.50;3.90;;;;;;;19.44;72.53;100643.59;105870;1294;74347;-86
2023/06/28 17:31:07;;;;;;;8.20;4.30;;;;;;;19.42;72.51;100639.64;105778;1294;67383;-86
2023/06/28 17:34:33;;;;;;;4.70;3.30;;;;;;;19.42;72.65;100643.86;105857;1294;71347;-86
2023/06/28 17:38:02;;;;;;;4.90;4.20;;;;;;;19.41;72.42;100646.17;105840;1294;58564;-86
2023/06/28 17:40:50;;;;;;;8.40;4.00;;;;;;;19.39;72.51;100647.18;105814;1293;59033;-86
2023/06/28 17:44:36;;;;;;;7.60;4.20;;;;;;;19.37;72.62;100647.08;105721;1294;72759;-86
2023/06/28 17:48:04;;;;;;;5.00;4.30;;;;;;;19.33;72.40;100652.16;106014;1292;69961;-86
2023/06/28 17:51:50;;;;;;;7.10;4.00;;;;;;;19.31;72.46;100659.09;105713;1294;72503;-86
2023/06/28 17:55:34;;;;;;;8.60;4.40;;;;;;;19.26;72.34;100657.98;105660;1296;58316;-86
2023/06/28 17:58:58;;;;;;;9.60;4.60;;;;;;;19.21;72.40;100663.83;105700;1294;59397;-86
2023/06/28 18:02:43;;;;;;;7.50;4.50;;;;;;;19.14;72.40;100663.48;105683;1295;72444;-89
2023/06/28 18:06:28;;;;;;;12.40;4.20;;;;;;;19.08;72.29;100665.55;105707;1296;67224;-88
2023/06/28 18:10:12;;;;;;;7.60;4.20;;;;;;;19.02;72.35;100660.79;105634;1295;72708;-89
2023/06/28 18:13:57;;;;;;;7.30;3.90;;;;;;;18.96;72.39;100663.71;105759;1296;59472;-88
2023/06/28 18:17:52;;;;;;;;;;;;;;;;;;;;;
2023/06/28 18:21:27;;;;;;;5.30;4.20;;;;;;;18.87;72.44;100674.30;105662;1296;72641;-89
2023/06/28 18:25:13;;;;;;;10.10;5.10;;;;;;;18.82;72.41;100680.13;105717;1297;67215;-89
2023/06/28 18:29:03;;;;;;;7.20;3.90;;;;;;;18.78;72.40;100681.70;105288;1302;71434;-88
2023/06/28 18:35:49;;;;;;;10.90;4.50;;;;;;;18.69;72.39;100692.31;106349;1287;59102;-89
2023/06/28 18:42:40;;;;;;;6.50;4.80;;;;;;;18.60;72.37;100692.39;106361;1288;67490;-88
2023/06/28 18:46:26;;;;;;;7.70;4.40;;;;;;;18.54;72.52;100693.52;105952;1292;71364;-89
2023/06/28 18:50:13;;;;;;;8.10;4.80;;;;;;;18.49;72.54;100701.77;105881;1293;58216;-88
2023/06/28 18:54:00;;;;;;;7.00;4.70;;;;;;;18.44;72.61;100705.35;106007;1293;58821;-87
2023/06/28 18:57:27;;;;;;;7.40;4.70;;;;;;;18.40;72.56;100716.55;105974;1292;72394;-87
2023/06/28 19:00:53;;;;;;;8.10;5.70;;;;;;;18.34;72.69;100720.30;105960;1294;67196;-87
2023/06/28 19:04:42;;;;;;;8.30;5.40;;;;;;;18.30;72.68;100721.39;105976;1294;70958;-88
2023/06/28 19:08:39;;;;;;;;;;;;;;;;;;;;;
